sensor_id;sensor_type;location;lat;lon;timestamp;temperature;humidity
65044;DHT22;51617;48.158;16.464;2023-02-12T00:02:07;7.80;90.70
65044;DHT22;51617;48.158;16.464;2023-02-12T00:04:34;7.80;90.90
65044;DHT22;51617;48.158;16.464;2023-02-12T00:06:59;7.70;91.00
65044;DHT22;51617;48.158;16.464;2023-02-12T00:09:25;7.70;91.10
65044;DHT22;51617;48.158;16.464;2023-02-12T00:11:51;7.80;91.10
65044;DHT22;51617;48.158;16.464;2023-02-12T00:14:17;7.80;91.30
65044;DHT22;51617;48.158;16.464;2023-02-12T00:16:42;7.80;91.30
65044;DHT22;51617;48.158;16.464;2023-02-12T00:19:08;7.80;91.30
65044;DHT22;51617;48.158;16.464;2023-02-12T00:21:34;7.80;91.40
65044;DHT22;51617;48.158;16.464;2023-02-12T00:24:01;7.70;91.40
65044;DHT22;51617;48.158;16.464;2023-02-12T00:26:27;7.80;91.50
65044;DHT22;51617;48.158;16.464;2023-02-12T00:28:53;7.70;91.60
65044;DHT22;51617;48.158;16.464;2023-02-12T00:31:22;7.80;91.60
65044;DHT22;51617;48.158;16.464;2023-02-12T00:33:48;7.80;91.70
65044;DHT22;51617;48.158;16.464;2023-02-12T00:36:20;7.80;91.80
65044;DHT22;51617;48.158;16.464;2023-02-12T00:38:46;7.80;91.90
65044;DHT22;51617;48.158;16.464;2023-02-12T00:41:12;7.80;92.00
65044;DHT22;51617;48.158;16.464;2023-02-12T00:43:38;7.80;92.10
65044;DHT22;51617;48.158;16.464;2023-02-12T00:46:04;7.80;92.10
65044;DHT22;51617;48.158;16.464;2023-02-12T00:48:34;7.80;92.10
65044;DHT22;51617;48.158;16.464;2023-02-12T00:51:01;7.90;92.10
65044;DHT22;51617;48.158;16.464;2023-02-12T00:53:27;7.90;92.00
65044;DHT22;51617;48.158;16.464;2023-02-12T00:55:52;7.90;92.00
65044;DHT22;51617;48.158;16.464;2023-02-12T00:58:18;8.00;92.00
65044;DHT22;51617;48.158;16.464;2023-02-12T01:00:44;8.00;92.00
65044;DHT22;51617;48.158;16.464;2023-02-12T01:03:10;8.00;92.10
65044;DHT22;51617;48.158;16.464;2023-02-12T01:05:35;8.00;92.10
65044;DHT22;51617;48.158;16.464;2023-02-12T01:08:02;8.10;92.00
65044;DHT22;51617;48.158;16.464;2023-02-12T01:10:28;8.10;92.10
65044;DHT22;51617;48.158;16.464;2023-02-12T01:12:54;8.10;92.20
65044;DHT22;51617;48.158;16.464;2023-02-12T01:15:20;8.10;92.20
65044;DHT22;51617;48.158;16.464;2023-02-12T01:17:46;8.20;92.10
65044;DHT22;51617;48.158;16.464;2023-02-12T01:20:15;8.20;92.30
65044;DHT22;51617;48.158;16.464;2023-02-12T01:22:44;8.20;92.20
65044;DHT22;51617;48.158;16.464;2023-02-12T01:25:11;8.10;92.20
65044;DHT22;51617;48.158;16.464;2023-02-12T01:27:36;8.20;92.20
65044;DHT22;51617;48.158;16.464;2023-02-12T01:30:05;8.20;92.30
65044;DHT22;51617;48.158;16.464;2023-02-12T01:32:31;8.20;92.30
65044;DHT22;51617;48.158;16.464;2023-02-12T01:34:56;8.20;92.30
65044;DHT22;51617;48.158;16.464;2023-02-12T01:37:22;8.20;92.60
65044;DHT22;51617;48.158;16.464;2023-02-12T01:39:48;8.20;92.50
65044;DHT22;51617;48.158;16.464;2023-02-12T01:42:15;8.20;92.60
65044;DHT22;51617;48.158;16.464;2023-02-12T01:44:45;8.20;92.70
65044;DHT22;51617;48.158;16.464;2023-02-12T01:47:30;8.20;92.70
65044;DHT22;51617;48.158;16.464;2023-02-12T01:49:56;8.20;92.90
65044;DHT22;51617;48.158;16.464;2023-02-12T01:52:23;8.20;93.20
65044;DHT22;51617;48.158;16.464;2023-02-12T01:54:51;8.30;93.20
65044;DHT22;51617;48.158;16.464;2023-02-12T01:57:18;8.30;93.10
65044;DHT22;51617;48.158;16.464;2023-02-12T01:59:47;8.30;93.20
65044;DHT22;51617;48.158;16.464;2023-02-12T02:02:16;8.30;93.20
65044;DHT22;51617;48.158;16.464;2023-02-12T02:04:58;8.30;93.20
65044;DHT22;51617;48.158;16.464;2023-02-12T02:07:24;8.30;93.30
65044;DHT22;51617;48.158;16.464;2023-02-12T02:09:50;8.30;93.40
65044;DHT22;51617;48.158;16.464;2023-02-12T02:12:16;8.40;93.40
65044;DHT22;51617;48.158;16.464;2023-02-12T02:15:01;8.30;93.50
65044;DHT22;51617;48.158;16.464;2023-02-12T02:20:48;8.30;93.80
65044;DHT22;51617;48.158;16.464;2023-02-12T02:36:39;8.00;95.40
65044;DHT22;51617;48.158;16.464;2023-02-12T02:41:43;8.00;95.60
65044;DHT22;51617;48.158;16.464;2023-02-12T02:44:16;8.00;95.50
65044;DHT22;51617;48.158;16.464;2023-02-12T02:46:49;7.90;95.40
65044;DHT22;51617;48.158;16.464;2023-02-12T02:49:26;7.90;95.30
65044;DHT22;51617;48.158;16.464;2023-02-12T02:51:58;7.90;95.20
65044;DHT22;51617;48.158;16.464;2023-02-12T02:57:45;7.80;95.20
65044;DHT22;51617;48.158;16.464;2023-02-12T03:02:57;7.80;95.10
65044;DHT22;51617;48.158;16.464;2023-02-12T03:05:38;7.80;95.10
65044;DHT22;51617;48.158;16.464;2023-02-12T03:08:10;7.80;95.10
65044;DHT22;51617;48.158;16.464;2023-02-12T03:10:49;7.80;95.10
65044;DHT22;51617;48.158;16.464;2023-02-12T03:13:36;7.80;95.20
65044;DHT22;51617;48.158;16.464;2023-02-12T03:16:09;7.90;95.10
65044;DHT22;51617;48.158;16.464;2023-02-12T03:18:45;7.80;95.00
65044;DHT22;51617;48.158;16.464;2023-02-12T03:21:17;7.90;95.10
65044;DHT22;51617;48.158;16.464;2023-02-12T03:24:13;7.90;95.10
65044;DHT22;51617;48.158;16.464;2023-02-12T03:26:47;7.80;95.40
65044;DHT22;51617;48.158;16.464;2023-02-12T03:29:14;7.70;95.40
65044;DHT22;51617;48.158;16.464;2023-02-12T03:45:09;7.70;95.40
65044;DHT22;51617;48.158;16.464;2023-02-12T03:50:48;7.50;95.70
65044;DHT22;51617;48.158;16.464;2023-02-12T03:53:16;7.50;95.80
65044;DHT22;51617;48.158;16.464;2023-02-12T03:55:44;7.40;95.80
65044;DHT22;51617;48.158;16.464;2023-02-12T03:58:15;7.40;95.90
65044;DHT22;51617;48.158;16.464;2023-02-12T04:00:43;7.40;95.90
65044;DHT22;51617;48.158;16.464;2023-02-12T04:03:09;7.40;95.90
65044;DHT22;51617;48.158;16.464;2023-02-12T04:05:35;7.40;95.80
65044;DHT22;51617;48.158;16.464;2023-02-12T04:08:01;7.30;95.80
65044;DHT22;51617;48.158;16.464;2023-02-12T04:10:45;7.30;95.80
65044;DHT22;51617;48.158;16.464;2023-02-12T04:18:41;7.30;95.80
65044;DHT22;51617;48.158;16.464;2023-02-12T04:26:46;7.30;96.00
65044;DHT22;51617;48.158;16.464;2023-02-12T04:29:39;7.30;96.00
65044;DHT22;51617;48.158;16.464;2023-02-12T04:37:36;7.20;96.20
65044;DHT22;51617;48.158;16.464;2023-02-12T04:40:14;7.20;96.50
65044;DHT22;51617;48.158;16.464;2023-02-12T04:42:49;7.10;96.60
65044;DHT22;51617;48.158;16.464;2023-02-12T04:45:29;7.20;96.70
65044;DHT22;51617;48.158;16.464;2023-02-12T04:47:56;7.10;96.80
65044;DHT22;51617;48.158;16.464;2023-02-12T04:50:22;7.20;96.80
65044;DHT22;51617;48.158;16.464;2023-02-12T04:52:48;7.20;96.80
65044;DHT22;51617;48.158;16.464;2023-02-12T04:55:14;7.20;96.70
65044;DHT22;51617;48.158;16.464;2023-02-12T04:57:40;7.20;96.70
65044;DHT22;51617;48.158;16.464;2023-02-12T05:00:07;7.30;96.70
65044;DHT22;51617;48.158;16.464;2023-02-12T05:02:34;7.30;96.60
65044;DHT22;51617;48.158;16.464;2023-02-12T05:04:59;7.30;96.70
65044;DHT22;51617;48.158;16.464;2023-02-12T05:07:25;7.30;96.70
65044;DHT22;51617;48.158;16.464;2023-02-12T05:09:51;7.30;96.80
65044;DHT22;51617;48.158;16.464;2023-02-12T05:12:17;7.30;96.90
65044;DHT22;51617;48.158;16.464;2023-02-12T05:14:42;7.30;96.80
65044;DHT22;51617;48.158;16.464;2023-02-12T05:17:08;7.40;96.80
65044;DHT22;51617;48.158;16.464;2023-02-12T05:19:34;7.40;96.70
65044;DHT22;51617;48.158;16.464;2023-02-12T05:21:59;7.40;96.70
65044;DHT22;51617;48.158;16.464;2023-02-12T05:24:25;7.40;96.70
65044;DHT22;51617;48.158;16.464;2023-02-12T05:26:51;7.50;96.50
65044;DHT22;51617;48.158;16.464;2023-02-12T05:29:17;7.50;96.60
65044;DHT22;51617;48.158;16.464;2023-02-12T05:31:43;7.40;96.70
65044;DHT22;51617;48.158;16.464;2023-02-12T05:34:10;7.40;96.80
65044;DHT22;51617;48.158;16.464;2023-02-12T05:36:36;7.40;96.90
65044;DHT22;51617;48.158;16.464;2023-02-12T05:39:02;7.40;96.80
65044;DHT22;51617;48.158;16.464;2023-02-12T05:41:28;7.40;96.80
65044;DHT22;51617;48.158;16.464;2023-02-12T05:43:59;7.40;97.00
65044;DHT22;51617;48.158;16.464;2023-02-12T05:46:24;7.40;97.10
65044;DHT22;51617;48.158;16.464;2023-02-12T05:48:50;7.40;97.20
65044;DHT22;51617;48.158;16.464;2023-02-12T05:51:19;7.40;97.20
65044;DHT22;51617;48.158;16.464;2023-02-12T05:53:46;7.40;97.20
65044;DHT22;51617;48.158;16.464;2023-02-12T05:58:41;7.40;97.40
65044;DHT22;51617;48.158;16.464;2023-02-12T06:01:16;7.40;97.30
65044;DHT22;51617;48.158;16.464;2023-02-12T06:03:42;7.40;97.20
65044;DHT22;51617;48.158;16.464;2023-02-12T06:06:08;7.40;97.30
65044;DHT22;51617;48.158;16.464;2023-02-12T06:08:35;7.40;97.30
65044;DHT22;51617;48.158;16.464;2023-02-12T06:11:06;7.40;97.30
65044;DHT22;51617;48.158;16.464;2023-02-12T06:13:32;7.50;97.40
65044;DHT22;51617;48.158;16.464;2023-02-12T06:15:58;7.50;97.30
65044;DHT22;51617;48.158;16.464;2023-02-12T06:18:24;7.50;97.40
65044;DHT22;51617;48.158;16.464;2023-02-12T06:20:50;7.50;97.30
65044;DHT22;51617;48.158;16.464;2023-02-12T06:23:19;7.60;97.30
65044;DHT22;51617;48.158;16.464;2023-02-12T06:25:45;7.60;97.30
65044;DHT22;51617;48.158;16.464;2023-02-12T06:28:11;7.60;97.20
65044;DHT22;51617;48.158;16.464;2023-02-12T06:30:36;7.60;97.20
65044;DHT22;51617;48.158;16.464;2023-02-12T06:33:02;7.70;97.40
65044;DHT22;51617;48.158;16.464;2023-02-12T06:35:28;7.70;97.10
65044;DHT22;51617;48.158;16.464;2023-02-12T06:37:53;7.70;97.00
65044;DHT22;51617;48.158;16.464;2023-02-12T06:40:19;7.80;96.90
65044;DHT22;51617;48.158;16.464;2023-02-12T06:42:44;7.90;96.70
65044;DHT22;51617;48.158;16.464;2023-02-12T06:45:10;7.80;96.70
65044;DHT22;51617;48.158;16.464;2023-02-12T06:47:36;7.90;96.70
65044;DHT22;51617;48.158;16.464;2023-02-12T06:50:01;7.80;96.80
65044;DHT22;51617;48.158;16.464;2023-02-12T06:52:27;7.80;96.80
65044;DHT22;51617;48.158;16.464;2023-02-12T06:54:53;7.80;96.70
65044;DHT22;51617;48.158;16.464;2023-02-12T06:57:19;7.90;96.70
65044;DHT22;51617;48.158;16.464;2023-02-12T06:59:45;7.90;96.70
65044;DHT22;51617;48.158;16.464;2023-02-12T07:02:11;7.90;97.00
65044;DHT22;51617;48.158;16.464;2023-02-12T07:04:37;7.90;96.70
65044;DHT22;51617;48.158;16.464;2023-02-12T07:07:04;7.80;96.70
65044;DHT22;51617;48.158;16.464;2023-02-12T07:09:29;7.90;96.60
65044;DHT22;51617;48.158;16.464;2023-02-12T07:11:57;8.00;96.60
65044;DHT22;51617;48.158;16.464;2023-02-12T07:14:23;8.00;96.40
65044;DHT22;51617;48.158;16.464;2023-02-12T07:16:49;8.10;96.40
65044;DHT22;51617;48.158;16.464;2023-02-12T07:19:15;8.10;96.20
65044;DHT22;51617;48.158;16.464;2023-02-12T07:21:42;8.10;96.30
65044;DHT22;51617;48.158;16.464;2023-02-12T07:24:10;8.10;96.30
65044;DHT22;51617;48.158;16.464;2023-02-12T07:26:39;8.10;96.40
65044;DHT22;51617;48.158;16.464;2023-02-12T07:29:05;8.10;96.30
65044;DHT22;51617;48.158;16.464;2023-02-12T07:31:31;8.10;96.40
65044;DHT22;51617;48.158;16.464;2023-02-12T07:33:58;8.10;96.30
65044;DHT22;51617;48.158;16.464;2023-02-12T07:36:27;8.20;96.30
65044;DHT22;51617;48.158;16.464;2023-02-12T07:38:54;8.20;96.10
65044;DHT22;51617;48.158;16.464;2023-02-12T07:41:21;8.40;96.00
65044;DHT22;51617;48.158;16.464;2023-02-12T07:43:52;8.40;95.80
65044;DHT22;51617;48.158;16.464;2023-02-12T07:46:21;8.40;95.80
65044;DHT22;51617;48.158;16.464;2023-02-12T07:48:47;8.40;95.80
65044;DHT22;51617;48.158;16.464;2023-02-12T07:51:15;8.50;95.70
65044;DHT22;51617;48.158;16.464;2023-02-12T07:53:41;8.50;95.60
65044;DHT22;51617;48.158;16.464;2023-02-12T07:56:15;8.60;95.50
65044;DHT22;51617;48.158;16.464;2023-02-12T07:58:42;8.50;95.50
65044;DHT22;51617;48.158;16.464;2023-02-12T08:01:20;8.50;95.60
65044;DHT22;51617;48.158;16.464;2023-02-12T08:03:47;8.60;95.50
65044;DHT22;51617;48.158;16.464;2023-02-12T08:06:16;8.60;95.40
65044;DHT22;51617;48.158;16.464;2023-02-12T08:08:44;8.60;95.60
65044;DHT22;51617;48.158;16.464;2023-02-12T08:11:11;8.60;95.60
65044;DHT22;51617;48.158;16.464;2023-02-12T08:13:37;8.70;95.50
65044;DHT22;51617;48.158;16.464;2023-02-12T08:16:05;8.70;95.40
65044;DHT22;51617;48.158;16.464;2023-02-12T08:18:32;8.80;95.30
65044;DHT22;51617;48.158;16.464;2023-02-12T08:23:28;8.90;95.10
65044;DHT22;51617;48.158;16.464;2023-02-12T08:25:54;8.80;95.00
65044;DHT22;51617;48.158;16.464;2023-02-12T08:28:20;8.90;94.90
65044;DHT22;51617;48.158;16.464;2023-02-12T08:30:47;9.00;94.80
65044;DHT22;51617;48.158;16.464;2023-02-12T08:33:13;9.10;94.80
65044;DHT22;51617;48.158;16.464;2023-02-12T08:35:39;9.20;94.50
65044;DHT22;51617;48.158;16.464;2023-02-12T08:38:04;9.20;94.40
65044;DHT22;51617;48.158;16.464;2023-02-12T08:40:30;9.30;94.20
65044;DHT22;51617;48.158;16.464;2023-02-12T08:42:56;9.30;94.20
65044;DHT22;51617;48.158;16.464;2023-02-12T08:45:21;9.20;94.30
65044;DHT22;51617;48.158;16.464;2023-02-12T08:47:47;9.20;94.40
65044;DHT22;51617;48.158;16.464;2023-02-12T08:50:13;9.40;94.30
65044;DHT22;51617;48.158;16.464;2023-02-12T08:52:39;9.40;94.10
65044;DHT22;51617;48.158;16.464;2023-02-12T08:55:05;9.40;94.00
65044;DHT22;51617;48.158;16.464;2023-02-12T08:57:30;9.50;94.30
65044;DHT22;51617;48.158;16.464;2023-02-12T08:59:56;9.60;94.00
65044;DHT22;51617;48.158;16.464;2023-02-12T09:02:22;9.60;93.60
65044;DHT22;51617;48.158;16.464;2023-02-12T09:04:47;9.50;93.70
65044;DHT22;51617;48.158;16.464;2023-02-12T09:07:13;9.50;93.70
65044;DHT22;51617;48.158;16.464;2023-02-12T09:09:39;9.50;93.80
65044;DHT22;51617;48.158;16.464;2023-02-12T09:12:04;9.40;93.80
65044;DHT22;51617;48.158;16.464;2023-02-12T09:14:30;9.40;93.90
65044;DHT22;51617;48.158;16.464;2023-02-12T09:16:56;9.40;93.70
65044;DHT22;51617;48.158;16.464;2023-02-12T09:19:22;9.40;93.90
65044;DHT22;51617;48.158;16.464;2023-02-12T09:21:52;9.50;93.90
65044;DHT22;51617;48.158;16.464;2023-02-12T09:24:18;9.60;93.80
65044;DHT22;51617;48.158;16.464;2023-02-12T09:26:44;9.80;93.40
65044;DHT22;51617;48.158;16.464;2023-02-12T09:29:09;9.80;93.30
65044;DHT22;51617;48.158;16.464;2023-02-12T09:31:35;9.80;93.20
65044;DHT22;51617;48.158;16.464;2023-02-12T09:34:04;9.80;93.10
65044;DHT22;51617;48.158;16.464;2023-02-12T09:36:31;9.80;93.10
65044;DHT22;51617;48.158;16.464;2023-02-12T09:38:57;9.90;93.10
65044;DHT22;51617;48.158;16.464;2023-02-12T09:46:35;10.00;92.90
65044;DHT22;51617;48.158;16.464;2023-02-12T09:51:42;10.10;92.30
65044;DHT22;51617;48.158;16.464;2023-02-12T09:54:14;10.00;92.30
65044;DHT22;51617;48.158;16.464;2023-02-12T09:56:43;10.00;92.20
65044;DHT22;51617;48.158;16.464;2023-02-12T09:59:27;10.10;92.60
65044;DHT22;51617;48.158;16.464;2023-02-12T10:01:57;10.30;92.90
65044;DHT22;51617;48.158;16.464;2023-02-12T10:04:23;10.40;92.60
65044;DHT22;51617;48.158;16.464;2023-02-12T10:07:06;10.30;91.90
65044;DHT22;51617;48.158;16.464;2023-02-12T10:21:09;10.30;91.60
65044;DHT22;51617;48.158;16.464;2023-02-12T10:26:15;10.30;91.70
65044;DHT22;51617;48.158;16.464;2023-02-12T10:28:43;10.40;91.60
65044;DHT22;51617;48.158;16.464;2023-02-12T10:31:20;10.50;91.30
65044;DHT22;51617;48.158;16.464;2023-02-12T10:33:52;10.40;91.30
65044;DHT22;51617;48.158;16.464;2023-02-12T10:36:42;10.40;91.40
65044;DHT22;51617;48.158;16.464;2023-02-12T10:39:24;10.60;91.60
65044;DHT22;51617;48.158;16.464;2023-02-12T10:44:54;10.60;91.10
65044;DHT22;51617;48.158;16.464;2023-02-12T10:47:22;10.60;91.30
65044;DHT22;51617;48.158;16.464;2023-02-12T10:49:58;10.80;91.10
65044;DHT22;51617;48.158;16.464;2023-02-12T10:54:53;10.90;90.70
65044;DHT22;51617;48.158;16.464;2023-02-12T10:59:49;11.00;90.40
65044;DHT22;51617;48.158;16.464;2023-02-12T11:04:47;11.10;90.20
65044;DHT22;51617;48.158;16.464;2023-02-12T11:07:13;11.20;90.10
65044;DHT22;51617;48.158;16.464;2023-02-12T11:09:41;11.00;89.60
65044;DHT22;51617;48.158;16.464;2023-02-12T11:14:59;10.70;90.10
65044;DHT22;51617;48.158;16.464;2023-02-12T11:17:38;10.70;90.40
65044;DHT22;51617;48.158;16.464;2023-02-12T11:25:36;10.50;90.60
65044;DHT22;51617;48.158;16.464;2023-02-12T11:28:12;10.50;90.80
65044;DHT22;51617;48.158;16.464;2023-02-12T11:31:17;10.50;90.90
65044;DHT22;51617;48.158;16.464;2023-02-12T11:33:43;10.60;90.60
65044;DHT22;51617;48.158;16.464;2023-02-12T11:38:54;10.60;90.60
65044;DHT22;51617;48.158;16.464;2023-02-12T11:41:25;10.60;90.50
65044;DHT22;51617;48.158;16.464;2023-02-12T11:43:54;10.60;90.60
65044;DHT22;51617;48.158;16.464;2023-02-12T11:46:23;10.70;90.40
65044;DHT22;51617;48.158;16.464;2023-02-12T11:48:50;10.70;90.40
65044;DHT22;51617;48.158;16.464;2023-02-12T11:51:19;10.80;90.30
65044;DHT22;51617;48.158;16.464;2023-02-12T11:53:49;10.80;90.50
65044;DHT22;51617;48.158;16.464;2023-02-12T11:56:17;10.80;90.30
65044;DHT22;51617;48.158;16.464;2023-02-12T11:58:45;11.00;90.10
65044;DHT22;51617;48.158;16.464;2023-02-12T12:11:51;11.20;88.50
65044;DHT22;51617;48.158;16.464;2023-02-12T12:17:40;11.20;87.10
65044;DHT22;51617;48.158;16.464;2023-02-12T12:20:31;11.10;87.00
65044;DHT22;51617;48.158;16.464;2023-02-12T12:23:17;11.10;87.40
65044;DHT22;51617;48.158;16.464;2023-02-12T12:25:50;11.30;87.90
65044;DHT22;51617;48.158;16.464;2023-02-12T12:33:28;11.50;87.20
65044;DHT22;51617;48.158;16.464;2023-02-12T12:39:12;11.50;87.30
65044;DHT22;51617;48.158;16.464;2023-02-12T12:53:03;11.80;85.80
65044;DHT22;51617;48.158;16.464;2023-02-12T13:01:42;11.60;86.70
65044;DHT22;51617;48.158;16.464;2023-02-12T13:17:43;11.40;86.70
65044;DHT22;51617;48.158;16.464;2023-02-12T13:20:20;11.40;87.20
65044;DHT22;51617;48.158;16.464;2023-02-12T13:28:33;11.30;88.60
65044;DHT22;51617;48.158;16.464;2023-02-12T13:31:01;11.40;88.40
65044;DHT22;51617;48.158;16.464;2023-02-12T13:33:40;11.30;88.10
65044;DHT22;51617;48.158;16.464;2023-02-12T13:36:09;11.20;88.30
65044;DHT22;51617;48.158;16.464;2023-02-12T13:38:51;11.20;88.40
65044;DHT22;51617;48.158;16.464;2023-02-12T13:41:22;11.30;88.30
65044;DHT22;51617;48.158;16.464;2023-02-12T13:46:48;11.40;87.20
65044;DHT22;51617;48.158;16.464;2023-02-12T13:49:38;11.50;87.20
65044;DHT22;51617;48.158;16.464;2023-02-12T13:52:30;11.50;87.40
65044;DHT22;51617;48.158;16.464;2023-02-12T13:55:38;11.40;87.20
65044;DHT22;51617;48.158;16.464;2023-02-12T14:03:32;11.20;88.20
65044;DHT22;51617;48.158;16.464;2023-02-12T14:08:43;11.20;88.50
65044;DHT22;51617;48.158;16.464;2023-02-12T14:11:15;11.30;88.40
65044;DHT22;51617;48.158;16.464;2023-02-12T14:18:45;11.30;88.40
65044;DHT22;51617;48.158;16.464;2023-02-12T14:23:39;11.10;88.90
65044;DHT22;51617;48.158;16.464;2023-02-12T14:26:17;11.20;89.10
65044;DHT22;51617;48.158;16.464;2023-02-12T14:31:21;11.30;88.80
65044;DHT22;51617;48.158;16.464;2023-02-12T14:39:26;11.10;88.90
65044;DHT22;51617;48.158;16.464;2023-02-12T14:41:53;11.00;88.90
65044;DHT22;51617;48.158;16.464;2023-02-12T14:46:54;11.00;89.70
65044;DHT22;51617;48.158;16.464;2023-02-12T14:49:24;11.00;89.80
65044;DHT22;51617;48.158;16.464;2023-02-12T14:59:58;11.00;90.10
65044;DHT22;51617;48.158;16.464;2023-02-12T15:02:33;10.90;90.20
65044;DHT22;51617;48.158;16.464;2023-02-12T15:05:13;10.80;90.20
65044;DHT22;51617;48.158;16.464;2023-02-12T15:07:49;10.60;90.40
65044;DHT22;51617;48.158;16.464;2023-02-12T15:10:22;10.60;90.60
65044;DHT22;51617;48.158;16.464;2023-02-12T15:23:56;10.30;91.20
65044;DHT22;51617;48.158;16.464;2023-02-12T15:26:23;10.20;91.40
65044;DHT22;51617;48.158;16.464;2023-02-12T15:28:51;10.20;91.50
65044;DHT22;51617;48.158;16.464;2023-02-12T15:31:28;10.30;91.50
65044;DHT22;51617;48.158;16.464;2023-02-12T15:33:57;10.20;91.60
65044;DHT22;51617;48.158;16.464;2023-02-12T15:36:26;10.20;91.60
65044;DHT22;51617;48.158;16.464;2023-02-12T15:38:58;10.20;91.60
65044;DHT22;51617;48.158;16.464;2023-02-12T15:41:39;10.10;91.60
65044;DHT22;51617;48.158;16.464;2023-02-12T15:44:29;10.10;91.60
65044;DHT22;51617;48.158;16.464;2023-02-12T15:49:36;10.00;91.90
65044;DHT22;51617;48.158;16.464;2023-02-12T15:52:20;9.90;91.90
65044;DHT22;51617;48.158;16.464;2023-02-12T15:54:49;9.80;92.10
65044;DHT22;51617;48.158;16.464;2023-02-12T15:57:22;9.70;92.30
65044;DHT22;51617;48.158;16.464;2023-02-12T15:59:53;9.70;92.40
65044;DHT22;51617;48.158;16.464;2023-02-12T16:02:25;9.70;92.50
65044;DHT22;51617;48.158;16.464;2023-02-12T16:04:54;9.70;92.50
65044;DHT22;51617;48.158;16.464;2023-02-12T16:07:21;9.70;92.50
65044;DHT22;51617;48.158;16.464;2023-02-12T16:09:49;9.70;92.80
65044;DHT22;51617;48.158;16.464;2023-02-12T16:12:16;9.70;92.60
65044;DHT22;51617;48.158;16.464;2023-02-12T16:14:47;9.70;92.60
65044;DHT22;51617;48.158;16.464;2023-02-12T16:19:57;9.70;92.60
65044;DHT22;51617;48.158;16.464;2023-02-12T16:22:31;9.70;92.70
65044;DHT22;51617;48.158;16.464;2023-02-12T16:25:00;9.70;92.60
65044;DHT22;51617;48.158;16.464;2023-02-12T16:27:31;9.60;92.70
65044;DHT22;51617;48.158;16.464;2023-02-12T16:30:04;9.70;92.60
65044;DHT22;51617;48.158;16.464;2023-02-12T16:32:40;9.70;92.60
65044;DHT22;51617;48.158;16.464;2023-02-12T16:37:47;9.60;92.70
65044;DHT22;51617;48.158;16.464;2023-02-12T16:40:18;9.60;92.60
65044;DHT22;51617;48.158;16.464;2023-02-12T16:48:00;9.60;92.70
65044;DHT22;51617;48.158;16.464;2023-02-12T16:50:30;9.60;92.60
65044;DHT22;51617;48.158;16.464;2023-02-12T16:53:07;9.60;92.60
65044;DHT22;51617;48.158;16.464;2023-02-12T16:55:34;9.50;92.70
65044;DHT22;51617;48.158;16.464;2023-02-12T16:58:01;9.50;92.70
65044;DHT22;51617;48.158;16.464;2023-02-12T17:00:27;9.50;92.80
65044;DHT22;51617;48.158;16.464;2023-02-12T17:02:56;9.40;92.80
65044;DHT22;51617;48.158;16.464;2023-02-12T17:05:23;9.50;92.80
65044;DHT22;51617;48.158;16.464;2023-02-12T17:07:49;9.50;92.80
65044;DHT22;51617;48.158;16.464;2023-02-12T17:10:16;9.40;92.80
65044;DHT22;51617;48.158;16.464;2023-02-12T17:12:50;9.50;92.80
65044;DHT22;51617;48.158;16.464;2023-02-12T17:15:24;9.50;92.80
65044;DHT22;51617;48.158;16.464;2023-02-12T17:17:51;9.50;92.80
65044;DHT22;51617;48.158;16.464;2023-02-12T17:20:17;9.50;92.80
65044;DHT22;51617;48.158;16.464;2023-02-12T17:22:49;9.50;92.70
65044;DHT22;51617;48.158;16.464;2023-02-12T17:25:15;9.40;92.70
65044;DHT22;51617;48.158;16.464;2023-02-12T17:27:42;9.40;92.70
65044;DHT22;51617;48.158;16.464;2023-02-12T17:30:17;9.40;92.60
65044;DHT22;51617;48.158;16.464;2023-02-12T17:32:45;9.50;92.60
65044;DHT22;51617;48.158;16.464;2023-02-12T17:35:12;9.40;92.60
65044;DHT22;51617;48.158;16.464;2023-02-12T17:37:38;9.40;92.60
65044;DHT22;51617;48.158;16.464;2023-02-12T17:40:04;9.40;92.60
65044;DHT22;51617;48.158;16.464;2023-02-12T17:42:31;9.40;92.70
65044;DHT22;51617;48.158;16.464;2023-02-12T17:44:57;9.30;92.70
65044;DHT22;51617;48.158;16.464;2023-02-12T17:47:24;9.30;92.80
65044;DHT22;51617;48.158;16.464;2023-02-12T17:49:50;9.30;92.80
65044;DHT22;51617;48.158;16.464;2023-02-12T17:52:17;9.40;92.80
65044;DHT22;51617;48.158;16.464;2023-02-12T17:54:44;9.40;92.80
65044;DHT22;51617;48.158;16.464;2023-02-12T17:57:11;9.40;92.80
65044;DHT22;51617;48.158;16.464;2023-02-12T17:59:40;9.40;92.70
65044;DHT22;51617;48.158;16.464;2023-02-12T18:02:08;9.40;92.70
65044;DHT22;51617;48.158;16.464;2023-02-12T18:04:36;9.50;92.70
65044;DHT22;51617;48.158;16.464;2023-02-12T18:07:03;9.50;92.70
65044;DHT22;51617;48.158;16.464;2023-02-12T18:09:31;9.30;92.90
65044;DHT22;51617;48.158;16.464;2023-02-12T18:11:58;9.20;93.10
65044;DHT22;51617;48.158;16.464;2023-02-12T18:14:24;9.20;93.20
65044;DHT22;51617;48.158;16.464;2023-02-12T18:16:50;9.10;93.30
65044;DHT22;51617;48.158;16.464;2023-02-12T18:19:16;9.20;93.40
65044;DHT22;51617;48.158;16.464;2023-02-12T18:21:44;9.10;93.50
65044;DHT22;51617;48.158;16.464;2023-02-12T18:24:10;9.00;93.60
65044;DHT22;51617;48.158;16.464;2023-02-12T18:26:36;9.00;93.70
65044;DHT22;51617;48.158;16.464;2023-02-12T18:29:03;9.00;93.70
65044;DHT22;51617;48.158;16.464;2023-02-12T18:31:29;9.10;93.80
65044;DHT22;51617;48.158;16.464;2023-02-12T18:33:56;9.10;93.60
65044;DHT22;51617;48.158;16.464;2023-02-12T18:36:22;9.10;93.60
65044;DHT22;51617;48.158;16.464;2023-02-12T18:38:50;9.10;93.60
65044;DHT22;51617;48.158;16.464;2023-02-12T18:41:20;9.10;93.60
65044;DHT22;51617;48.158;16.464;2023-02-12T18:43:46;9.10;93.60
65044;DHT22;51617;48.158;16.464;2023-02-12T18:46:21;9.00;93.70
65044;DHT22;51617;48.158;16.464;2023-02-12T18:48:48;9.00;93.70
65044;DHT22;51617;48.158;16.464;2023-02-12T18:51:19;9.00;93.70
65044;DHT22;51617;48.158;16.464;2023-02-12T18:53:56;9.00;93.80
65044;DHT22;51617;48.158;16.464;2023-02-12T18:56:31;9.00;93.80
65044;DHT22;51617;48.158;16.464;2023-02-12T18:59:00;9.00;93.80
65044;DHT22;51617;48.158;16.464;2023-02-12T19:01:27;9.00;93.90
65044;DHT22;51617;48.158;16.464;2023-02-12T19:03:56;8.90;94.00
65044;DHT22;51617;48.158;16.464;2023-02-12T19:06:26;8.90;94.30
65044;DHT22;51617;48.158;16.464;2023-02-12T19:08:57;8.90;94.30
65044;DHT22;51617;48.158;16.464;2023-02-12T19:11:24;9.00;94.10
65044;DHT22;51617;48.158;16.464;2023-02-12T19:13:51;8.90;94.40
65044;DHT22;51617;48.158;16.464;2023-02-12T19:16:18;8.90;94.20
65044;DHT22;51617;48.158;16.464;2023-02-12T19:18:48;8.90;94.20
65044;DHT22;51617;48.158;16.464;2023-02-12T19:21:15;8.80;95.20
65044;DHT22;51617;48.158;16.464;2023-02-12T19:23:42;8.90;94.90
65044;DHT22;51617;48.158;16.464;2023-02-12T19:26:11;8.90;94.50
65044;DHT22;51617;48.158;16.464;2023-02-12T19:28:38;8.90;94.30